sensor_id;sensor_type;location;lat;lon;timestamp;P1;durP1;ratioP1;P2;durP2;ratioP2
81912;SDS011;71377;50.698;7.164;2023-08-06T00:00:26;2.95;;;2.17;;
81912;SDS011;71377;50.698;7.164;2023-08-06T00:02:53;4.55;;;2.92;;
81912;SDS011;71377;50.698;7.164;2023-08-06T00:05:20;4.75;;;2.75;;
81912;SDS011;71377;50.698;7.164;2023-08-06T00:07:49;3.83;;;2.58;;
81912;SDS011;71377;50.698;7.164;2023-08-06T00:10:16;3.47;;;2.85;;
81912;SDS011;71377;50.698;7.164;2023-08-06T00:12:43;4.55;;;2.85;;
81912;SDS011;71377;50.698;7.164;2023-08-06T00:15:10;3.72;;;2.70;;
81912;SDS011;71377;50.698;7.164;2023-08-06T00:17:39;3.50;;;2.63;;
81912;SDS011;71377;50.698;7.164;2023-08-06T00:20:06;5.55;;;2.70;;
81912;SDS011;71377;50.698;7.164;2023-08-06T00:22:33;5.55;;;2.85;;
81912;SDS011;71377;50.698;7.164;2023-08-06T00:25:01;3.40;;;2.80;;
81912;SDS011;71377;50.698;7.164;2023-08-06T00:27:28;3.60;;;2.83;;
81912;SDS011;71377;50.698;7.164;2023-08-06T00:29:54;5.13;;;2.70;;
81912;SDS011;71377;50.698;7.164;2023-08-06T00:32:21;3.97;;;3.00;;
81912;SDS011;71377;50.698;7.164;2023-08-06T00:34:48;4.15;;;2.80;;
81912;SDS011;71377;50.698;7.164;2023-08-06T00:37:18;3.40;;;2.42;;
81912;SDS011;71377;50.698;7.164;2023-08-06T00:39:45;3.88;;;2.40;;
81912;SDS011;71377;50.698;7.164;2023-08-06T00:42:12;3.20;;;2.60;;
81912;SDS011;71377;50.698;7.164;2023-08-06T00:44:38;3.58;;;2.30;;
81912;SDS011;71377;50.698;7.164;2023-08-06T00:47:05;4.18;;;2.20;;
81912;SDS011;71377;50.698;7.164;2023-08-06T00:49:34;2.75;;;1.90;;
81912;SDS011;71377;50.698;7.164;2023-08-06T00:52:02;3.75;;;2.45;;
81912;SDS011;71377;50.698;7.164;2023-08-06T00:54:31;4.00;;;2.13;;
81912;SDS011;71377;50.698;7.164;2023-08-06T00:56:58;3.88;;;2.50;;
81912;SDS011;71377;50.698;7.164;2023-08-06T00:59:27;4.88;;;2.35;;
81912;SDS011;71377;50.698;7.164;2023-08-06T01:01:55;3.28;;;2.40;;
81912;SDS011;71377;50.698;7.164;2023-08-06T01:04:22;2.40;;;2.20;;
81912;SDS011;71377;50.698;7.164;2023-08-06T01:06:52;5.55;;;2.25;;
81912;SDS011;71377;50.698;7.164;2023-08-06T01:15:00;2.35;;;2.15;;
81912;SDS011;71377;50.698;7.164;2023-08-06T01:17:49;3.45;;;2.10;;
81912;SDS011;71377;50.698;7.164;2023-08-06T01:20:16;2.58;;;2.30;;
81912;SDS011;71377;50.698;7.164;2023-08-06T01:22:42;2.92;;;2.28;;
81912;SDS011;71377;50.698;7.164;2023-08-06T01:25:09;3.35;;;2.03;;
81912;SDS011;71377;50.698;7.164;2023-08-06T01:27:42;2.20;;;2.00;;
81912;SDS011;71377;50.698;7.164;2023-08-06T01:30:13;3.28;;;2.20;;
81912;SDS011;71377;50.698;7.164;2023-08-06T01:32:44;2.15;;;1.85;;
81912;SDS011;71377;50.698;7.164;2023-08-06T01:35:15;3.13;;;2.10;;
81912;SDS011;71377;50.698;7.164;2023-08-06T01:37:43;2.17;;;1.98;;
81912;SDS011;71377;50.698;7.164;2023-08-06T01:40:10;3.33;;;2.20;;
81912;SDS011;71377;50.698;7.164;2023-08-06T01:42:40;4.63;;;2.30;;
81912;SDS011;71377;50.698;7.164;2023-08-06T01:45:07;4.35;;;2.50;;
81912;SDS011;71377;50.698;7.164;2023-08-06T01:47:34;4.93;;;2.10;;
81912;SDS011;71377;50.698;7.164;2023-08-06T01:50:02;4.32;;;2.47;;
81912;SDS011;71377;50.698;7.164;2023-08-06T01:52:29;3.63;;;2.33;;
81912;SDS011;71377;50.698;7.164;2023-08-06T01:54:55;2.45;;;2.03;;
81912;SDS011;71377;50.698;7.164;2023-08-06T01:57:22;4.80;;;2.65;;
81912;SDS011;71377;50.698;7.164;2023-08-06T01:59:48;3.25;;;2.45;;
81912;SDS011;71377;50.698;7.164;2023-08-06T02:02:15;3.60;;;2.22;;
81912;SDS011;71377;50.698;7.164;2023-08-06T02:04:41;3.72;;;2.72;;
81912;SDS011;71377;50.698;7.164;2023-08-06T02:07:07;2.78;;;2.30;;
81912;SDS011;71377;50.698;7.164;2023-08-06T02:09:34;2.42;;;2.22;;
81912;SDS011;71377;50.698;7.164;2023-08-06T02:12:02;5.82;;;2.72;;
81912;SDS011;71377;50.698;7.164;2023-08-06T02:14:29;4.53;;;2.50;;
81912;SDS011;71377;50.698;7.164;2023-08-06T02:16:55;3.97;;;2.58;;
81912;SDS011;71377;50.698;7.164;2023-08-06T02:19:22;5.47;;;2.60;;
81912;SDS011;71377;50.698;7.164;2023-08-06T02:21:48;6.22;;;2.67;;
81912;SDS011;71377;50.698;7.164;2023-08-06T02:24:15;2.65;;;2.30;;
81912;SDS011;71377;50.698;7.164;2023-08-06T02:26:41;3.60;;;2.50;;
81912;SDS011;71377;50.698;7.164;2023-08-06T02:29:08;3.00;;;2.30;;
81912;SDS011;71377;50.698;7.164;2023-08-06T02:31:34;5.03;;;2.40;;
81912;SDS011;71377;50.698;7.164;2023-08-06T02:34:00;4.60;;;2.40;;
81912;SDS011;71377;50.698;7.164;2023-08-06T02:36:27;2.58;;;2.35;;
81912;SDS011;71377;50.698;7.164;2023-08-06T02:38:55;3.10;;;2.30;;
81912;SDS011;71377;50.698;7.164;2023-08-06T02:41:22;3.38;;;2.20;;
81912;SDS011;71377;50.698;7.164;2023-08-06T02:43:48;3.60;;;2.50;;
81912;SDS011;71377;50.698;7.164;2023-08-06T02:46:14;2.25;;;1.95;;
81912;SDS011;71377;50.698;7.164;2023-08-06T02:48:41;2.38;;;2.17;;
81912;SDS011;71377;50.698;7.164;2023-08-06T02:51:07;2.95;;;2.10;;
81912;SDS011;71377;50.698;7.164;2023-08-06T02:53:34;3.30;;;2.10;;
81912;SDS011;71377;50.698;7.164;2023-08-06T02:56:00;3.10;;;2.33;;
81912;SDS011;71377;50.698;7.164;2023-08-06T02:58:27;4.60;;;2.05;;
81912;SDS011;71377;50.698;7.164;2023-08-06T03:01:00;3.13;;;2.15;;
81912;SDS011;71377;50.698;7.164;2023-08-06T03:03:26;4.38;;;2.20;;
81912;SDS011;71377;50.698;7.164;2023-08-06T03:05:53;4.95;;;2.00;;
81912;SDS011;71377;50.698;7.164;2023-08-06T03:08:20;2.97;;;2.10;;
81912;SDS011;71377;50.698;7.164;2023-08-06T03:10:50;4.15;;;2.10;;
81912;SDS011;71377;50.698;7.164;2023-08-06T03:13:17;5.18;;;2.20;;
81912;SDS011;71377;50.698;7.164;2023-08-06T03:15:51;3.80;;;2.28;;
81912;SDS011;71377;50.698;7.164;2023-08-06T03:18:22;2.28;;;1.90;;
81912;SDS011;71377;50.698;7.164;2023-08-06T03:20:49;3.63;;;1.77;;
81912;SDS011;71377;50.698;7.164;2023-08-06T03:23:15;3.42;;;1.75;;
81912;SDS011;71377;50.698;7.164;2023-08-06T03:25:42;2.33;;;1.70;;
81912;SDS011;71377;50.698;7.164;2023-08-06T03:28:08;2.20;;;1.77;;
81912;SDS011;71377;50.698;7.164;2023-08-06T03:30:35;5.15;;;2.17;;
81912;SDS011;71377;50.698;7.164;2023-08-06T03:33:01;4.75;;;1.80;;
81912;SDS011;71377;50.698;7.164;2023-08-06T03:35:28;2.90;;;1.90;;
81912;SDS011;71377;50.698;7.164;2023-08-06T03:37:54;5.15;;;2.03;;
81912;SDS011;71377;50.698;7.164;2023-08-06T03:40:21;4.45;;;2.00;;
81912;SDS011;71377;50.698;7.164;2023-08-06T03:42:47;4.38;;;1.80;;
81912;SDS011;71377;50.698;7.164;2023-08-06T03:45:14;2.53;;;1.75;;
81912;SDS011;71377;50.698;7.164;2023-08-06T03:47:40;3.92;;;1.98;;
81912;SDS011;71377;50.698;7.164;2023-08-06T03:50:07;4.13;;;1.95;;
81912;SDS011;71377;50.698;7.164;2023-08-06T03:52:33;2.80;;;1.80;;
81912;SDS011;71377;50.698;7.164;2023-08-06T03:55:00;4.40;;;2.13;;
81912;SDS011;71377;50.698;7.164;2023-08-06T03:57:26;2.55;;;1.70;;
81912;SDS011;71377;50.698;7.164;2023-08-06T03:59:53;5.20;;;2.08;;
81912;SDS011;71377;50.698;7.164;2023-08-06T04:02:20;3.05;;;1.60;;
81912;SDS011;71377;50.698;7.164;2023-08-06T04:04:47;2.53;;;1.60;;
81912;SDS011;71377;50.698;7.164;2023-08-06T04:07:13;5.45;;;1.67;;
81912;SDS011;71377;50.698;7.164;2023-08-06T04:09:52;3.88;;;1.45;;
81912;SDS011;71377;50.698;7.164;2023-08-06T04:12:26;3.25;;;1.60;;
81912;SDS011;71377;50.698;7.164;2023-08-06T04:14:53;2.92;;;1.67;;
81912;SDS011;71377;50.698;7.164;2023-08-06T04:17:20;2.63;;;1.40;;
81912;SDS011;71377;50.698;7.164;2023-08-06T04:19:48;4.85;;;1.70;;
81912;SDS011;71377;50.698;7.164;2023-08-06T04:22:17;2.03;;;1.50;;
81912;SDS011;71377;50.698;7.164;2023-08-06T04:24:44;4.15;;;1.80;;
81912;SDS011;71377;50.698;7.164;2023-08-06T04:27:11;4.47;;;1.70;;
81912;SDS011;71377;50.698;7.164;2023-08-06T04:29:38;2.53;;;1.50;;
81912;SDS011;71377;50.698;7.164;2023-08-06T04:32:05;3.00;;;1.58;;
81912;SDS011;71377;50.698;7.164;2023-08-06T04:34:33;6.55;;;1.65;;
81912;SDS011;71377;50.698;7.164;2023-08-06T04:37:03;3.13;;;1.85;;
81912;SDS011;71377;50.698;7.164;2023-08-06T04:39:30;1.83;;;1.52;;
81912;SDS011;71377;50.698;7.164;2023-08-06T04:41:56;3.33;;;1.77;;
81912;SDS011;71377;50.698;7.164;2023-08-06T04:44:26;4.13;;;1.95;;
81912;SDS011;71377;50.698;7.164;2023-08-06T04:46:52;4.97;;;1.77;;
81912;SDS011;71377;50.698;7.164;2023-08-06T04:49:22;2.65;;;1.70;;
81912;SDS011;71377;50.698;7.164;2023-08-06T04:51:49;4.07;;;1.73;;
81912;SDS011;71377;50.698;7.164;2023-08-06T04:54:15;6.13;;;2.08;;
81912;SDS011;71377;50.698;7.164;2023-08-06T04:56:42;6.57;;;2.00;;
81912;SDS011;71377;50.698;7.164;2023-08-06T04:59:08;5.88;;;2.00;;
81912;SDS011;71377;50.698;7.164;2023-08-06T05:01:35;3.00;;;1.80;;
81912;SDS011;71377;50.698;7.164;2023-08-06T05:04:01;3.97;;;1.92;;
81912;SDS011;71377;50.698;7.164;2023-08-06T05:06:28;2.63;;;1.75;;
81912;SDS011;71377;50.698;7.164;2023-08-06T05:08:54;2.85;;;1.40;;
81912;SDS011;71377;50.698;7.164;2023-08-06T05:11:21;2.30;;;1.30;;
81912;SDS011;71377;50.698;7.164;2023-08-06T05:13:47;5.88;;;1.83;;
81912;SDS011;71377;50.698;7.164;2023-08-06T05:16:14;2.83;;;1.50;;
81912;SDS011;71377;50.698;7.164;2023-08-06T05:18:40;1.50;;;1.38;;
81912;SDS011;71377;50.698;7.164;2023-08-06T05:21:07;1.50;;;1.30;;
81912;SDS011;71377;50.698;7.164;2023-08-06T05:23:34;4.15;;;1.63;;
81912;SDS011;71377;50.698;7.164;2023-08-06T05:26:00;1.80;;;1.60;;
81912;SDS011;71377;50.698;7.164;2023-08-06T05:28:27;1.60;;;1.50;;
81912;SDS011;71377;50.698;7.164;2023-08-06T05:30:53;2.58;;;1.50;;
81912;SDS011;71377;50.698;7.164;2023-08-06T05:33:19;1.70;;;1.60;;
81912;SDS011;71377;50.698;7.164;2023-08-06T05:35:46;3.70;;;1.58;;
81912;SDS011;71377;50.698;7.164;2023-08-06T05:38:12;3.92;;;1.70;;
81912;SDS011;71377;50.698;7.164;2023-08-06T05:40:39;4.32;;;1.67;;
81912;SDS011;71377;50.698;7.164;2023-08-06T05:43:05;3.03;;;1.67;;
81912;SDS011;71377;50.698;7.164;2023-08-06T05:45:31;3.17;;;1.80;;
81912;SDS011;71377;50.698;7.164;2023-08-06T05:47:58;3.85;;;1.77;;
81912;SDS011;71377;50.698;7.164;2023-08-06T05:50:25;3.25;;;1.40;;
81912;SDS011;71377;50.698;7.164;2023-08-06T05:52:51;1.98;;;1.30;;
81912;SDS011;71377;50.698;7.164;2023-08-06T05:55:19;3.25;;;1.63;;
81912;SDS011;71377;50.698;7.164;2023-08-06T05:57:46;4.50;;;1.60;;
81912;SDS011;71377;50.698;7.164;2023-08-06T06:00:12;2.88;;;1.45;;
81912;SDS011;71377;50.698;7.164;2023-08-06T06:02:39;1.92;;;1.30;;
81912;SDS011;71377;50.698;7.164;2023-08-06T06:05:06;1.75;;;1.42;;
81912;SDS011;71377;50.698;7.164;2023-08-06T06:07:32;4.38;;;1.70;;
81912;SDS011;71377;50.698;7.164;2023-08-06T06:09:59;2.13;;;1.20;;
81912;SDS011;71377;50.698;7.164;2023-08-06T06:12:25;1.83;;;1.25;;
81912;SDS011;71377;50.698;7.164;2023-08-06T06:14:53;1.27;;;1.17;;
81912;SDS011;71377;50.698;7.164;2023-08-06T06:17:19;2.25;;;1.27;;
81912;SDS011;71377;50.698;7.164;2023-08-06T06:19:46;2.50;;;1.20;;
81912;SDS011;71377;50.698;7.164;2023-08-06T06:22:13;1.75;;;1.02;;
81912;SDS011;71377;50.698;7.164;2023-08-06T06:24:40;1.98;;;1.00;;
81912;SDS011;71377;50.698;7.164;2023-08-06T06:27:06;1.77;;;0.90;;
81912;SDS011;71377;50.698;7.164;2023-08-06T06:29:32;0.70;;;0.70;;
81912;SDS011;71377;50.698;7.164;2023-08-06T06:31:59;1.17;;;0.60;;
81912;SDS011;71377;50.698;7.164;2023-08-06T06:34:25;2.65;;;0.68;;
81912;SDS011;71377;50.698;7.164;2023-08-06T06:36:52;2.33;;;0.80;;
81912;SDS011;71377;50.698;7.164;2023-08-06T06:39:18;2.72;;;0.68;;
81912;SDS011;71377;50.698;7.164;2023-08-06T06:41:47;2.15;;;0.73;;
81912;SDS011;71377;50.698;7.164;2023-08-06T06:44:14;2.75;;;0.70;;
81912;SDS011;71377;50.698;7.164;2023-08-06T06:46:41;0.50;;;0.50;;
81912;SDS011;71377;50.698;7.164;2023-08-06T06:49:07;0.75;;;0.52;;
81912;SDS011;71377;50.698;7.164;2023-08-06T06:51:34;1.27;;;0.60;;
81912;SDS011;71377;50.698;7.164;2023-08-06T06:54:00;0.63;;;0.60;;
81912;SDS011;71377;50.698;7.164;2023-08-06T06:56:27;0.70;;;0.60;;
81912;SDS011;71377;50.698;7.164;2023-08-06T06:58:53;0.73;;;0.65;;
81912;SDS011;71377;50.698;7.164;2023-08-06T07:01:19;1.90;;;0.70;;
81912;SDS011;71377;50.698;7.164;2023-08-06T07:03:46;1.65;;;0.70;;
81912;SDS011;71377;50.698;7.164;2023-08-06T07:06:12;1.25;;;0.80;;
81912;SDS011;71377;50.698;7.164;2023-08-06T07:08:39;0.77;;;0.70;;
81912;SDS011;71377;50.698;7.164;2023-08-06T07:11:06;0.75;;;0.70;;
81912;SDS011;71377;50.698;7.164;2023-08-06T07:13:33;1.65;;;0.70;;
81912;SDS011;71377;50.698;7.164;2023-08-06T07:16:00;1.52;;;0.77;;
81912;SDS011;71377;50.698;7.164;2023-08-06T07:18:27;0.93;;;0.85;;
81912;SDS011;71377;50.698;7.164;2023-08-06T07:20:54;0.70;;;0.70;;
81912;SDS011;71377;50.698;7.164;2023-08-06T07:23:22;0.90;;;0.60;;
81912;SDS011;71377;50.698;7.164;2023-08-06T07:25:50;0.88;;;0.80;;
81912;SDS011;71377;50.698;7.164;2023-08-06T07:28:17;1.40;;;0.90;;
81912;SDS011;71377;50.698;7.164;2023-08-06T07:30:44;1.75;;;0.77;;
81912;SDS011;71377;50.698;7.164;2023-08-06T07:33:11;1.75;;;0.80;;
81912;SDS011;71377;50.698;7.164;2023-08-06T07:35:38;1.23;;;0.80;;
81912;SDS011;71377;50.698;7.164;2023-08-06T07:38:04;1.67;;;0.80;;
81912;SDS011;71377;50.698;7.164;2023-08-06T07:40:31;1.67;;;0.60;;
81912;SDS011;71377;50.698;7.164;2023-08-06T07:42:57;1.85;;;0.70;;
81912;SDS011;71377;50.698;7.164;2023-08-06T07:45:24;1.15;;;0.50;;
81912;SDS011;71377;50.698;7.164;2023-08-06T07:47:50;2.22;;;0.70;;
81912;SDS011;71377;50.698;7.164;2023-08-06T07:50:17;1.67;;;0.90;;
81912;SDS011;71377;50.698;7.164;2023-08-06T07:52:44;0.85;;;0.60;;
81912;SDS011;71377;50.698;7.164;2023-08-06T07:55:10;3.05;;;0.70;;
81912;SDS011;71377;50.698;7.164;2023-08-06T07:57:36;0.80;;;0.70;;
81912;SDS011;71377;50.698;7.164;2023-08-06T08:00:04;1.27;;;0.70;;
81912;SDS011;71377;50.698;7.164;2023-08-06T08:02:31;0.77;;;0.77;;
81912;SDS011;71377;50.698;7.164;2023-08-06T08:04:58;0.80;;;0.80;;
81912;SDS011;71377;50.698;7.164;2023-08-06T08:07:24;2.45;;;0.68;;
81912;SDS011;71377;50.698;7.164;2023-08-06T08:09:51;1.42;;;0.80;;
81912;SDS011;71377;50.698;7.164;2023-08-06T08:12:17;2.67;;;0.80;;
81912;SDS011;71377;50.698;7.164;2023-08-06T08:14:43;2.88;;;0.90;;
81912;SDS011;71377;50.698;7.164;2023-08-06T08:17:11;0.95;;;0.88;;
81912;SDS011;71377;50.698;7.164;2023-08-06T08:19:39;1.63;;;0.80;;
81912;SDS011;71377;50.698;7.164;2023-08-06T08:22:06;0.90;;;0.70;;
81912;SDS011;71377;50.698;7.164;2023-08-06T08:24:33;1.38;;;0.85;;
81912;SDS011;71377;50.698;7.164;2023-08-06T08:26:59;1.38;;;0.77;;
81912;SDS011;71377;50.698;7.164;2023-08-06T08:29:26;0.80;;;0.80;;
81912;SDS011;71377;50.698;7.164;2023-08-06T08:31:52;1.65;;;0.70;;
81912;SDS011;71377;50.698;7.164;2023-08-06T08:34:19;2.28;;;0.90;;
81912;SDS011;71377;50.698;7.164;2023-08-06T08:36:46;1.17;;;0.82;;
81912;SDS011;71377;50.698;7.164;2023-08-06T08:39:13;3.25;;;0.95;;
81912;SDS011;71377;50.698;7.164;2023-08-06T08:41:40;1.33;;;0.82;;
81912;SDS011;71377;50.698;7.164;2023-08-06T08:44:08;3.92;;;1.20;;
81912;SDS011;71377;50.698;7.164;2023-08-06T08:46:37;2.88;;;1.10;;
81912;SDS011;71377;50.698;7.164;2023-08-06T08:49:06;0.90;;;0.80;;
81912;SDS011;71377;50.698;7.164;2023-08-06T08:51:33;5.57;;;0.80;;
81912;SDS011;71377;50.698;7.164;2023-08-06T08:54:04;2.55;;;1.20;;
81912;SDS011;71377;50.698;7.164;2023-08-06T08:56:31;1.55;;;1.05;;
81912;SDS011;71377;50.698;7.164;2023-08-06T08:58:58;5.30;;;1.20;;
81912;SDS011;71377;50.698;7.164;2023-08-06T09:01:25;3.70;;;1.30;;
81912;SDS011;71377;50.698;7.164;2023-08-06T09:03:54;2.05;;;1.10;;
81912;SDS011;71377;50.698;7.164;2023-08-06T09:06:21;1.40;;;1.10;;
81912;SDS011;71377;50.698;7.164;2023-08-06T09:08:54;1.85;;;1.10;;
81912;SDS011;71377;50.698;7.164;2023-08-06T09:11:30;1.30;;;1.20;;
81912;SDS011;71377;50.698;7.164;2023-08-06T09:14:06;1.20;;;1.05;;
81912;SDS011;71377;50.698;7.164;2023-08-06T09:16:36;1.83;;;1.05;;
81912;SDS011;71377;50.698;7.164;2023-08-06T09:19:10;1.63;;;1.17;;
81912;SDS011;71377;50.698;7.164;2023-08-06T09:21:42;3.08;;;1.23;;
81912;SDS011;71377;50.698;7.164;2023-08-06T09:24:09;1.70;;;1.10;;
81912;SDS011;71377;50.698;7.164;2023-08-06T09:26:40;2.80;;;1.20;;
81912;SDS011;71377;50.698;7.164;2023-08-06T09:29:08;1.27;;;1.17;;
81912;SDS011;71377;50.698;7.164;2023-08-06T09:34:15;1.33;;;0.70;;
81912;SDS011;71377;50.698;7.164;2023-08-06T09:36:46;0.50;;;0.30;;
81912;SDS011;71377;50.698;7.164;2023-08-06T09:39:14;0.90;;;0.38;;
81912;SDS011;71377;50.698;7.164;2023-08-06T09:41:42;0.52;;;0.30;;
81912;SDS011;71377;50.698;7.164;2023-08-06T09:44:19;0.57;;;0.40;;
81912;SDS011;71377;50.698;7.164;2023-08-06T09:46:48;0.40;;;0.40;;
81912;SDS011;71377;50.698;7.164;2023-08-06T09:49:24;0.45;;;0.45;;
81912;SDS011;71377;50.698;7.164;2023-08-06T09:51:52;1.92;;;0.30;;
81912;SDS011;71377;50.698;7.164;2023-08-06T09:54:23;0.90;;;0.45;;
81912;SDS011;71377;50.698;7.164;2023-08-06T09:56:53;0.30;;;0.20;;
81912;SDS011;71377;50.698;7.164;2023-08-06T09:59:21;0.75;;;0.30;;
81912;SDS011;71377;50.698;7.164;2023-08-06T10:01:49;0.60;;;0.20;;
81912;SDS011;71377;50.698;7.164;2023-08-06T10:04:16;0.77;;;0.30;;
81912;SDS011;71377;50.698;7.164;2023-08-06T10:06:48;0.30;;;0.25;;
81912;SDS011;71377;50.698;7.164;2023-08-06T10:09:14;1.90;;;0.28;;
81912;SDS011;71377;50.698;7.164;2023-08-06T10:11:42;0.30;;;0.30;;
81912;SDS011;71377;50.698;7.164;2023-08-06T10:16:44;0.90;;;0.30;;
81912;SDS011;71377;50.698;7.164;2023-08-06T10:19:11;0.17;;;0.10;;
81912;SDS011;71377;50.698;7.164;2023-08-06T10:21:39;0.45;;;0.35;;
81912;SDS011;71377;50.698;7.164;2023-08-06T10:24:08;0.25;;;0.25;;
81912;SDS011;71377;50.698;7.164;2023-08-06T10:26:37;0.63;;;0.35;;
81912;SDS011;71377;50.698;7.164;2023-08-06T10:32:01;2.33;;;0.70;;
81912;SDS011;71377;50.698;7.164;2023-08-06T10:37:20;1.77;;;0.95;;
81912;SDS011;71377;50.698;7.164;2023-08-06T10:39:48;2.10;;;1.00;;
81912;SDS011;71377;50.698;7.164;2023-08-06T10:42:26;1.92;;;1.10;;
81912;SDS011;71377;50.698;7.164;2023-08-06T10:47:40;1.98;;;1.27;;
81912;SDS011;71377;50.698;7.164;2023-08-06T10:50:16;2.60;;;1.25;;
81912;SDS011;71377;50.698;7.164;2023-08-06T10:52:44;1.73;;;1.20;;
81912;SDS011;71377;50.698;7.164;2023-08-06T10:55:11;2.45;;;1.33;;
81912;SDS011;71377;50.698;7.164;2023-08-06T10:57:37;6.03;;;1.38;;
81912;SDS011;71377;50.698;7.164;2023-08-06T11:00:05;4.25;;;1.30;;
81912;SDS011;71377;50.698;7.164;2023-08-06T11:02:42;4.28;;;1.30;;
81912;SDS011;71377;50.698;7.164;2023-08-06T11:05:10;1.77;;;1.20;;
81912;SDS011;71377;50.698;7.164;2023-08-06T11:07:37;1.83;;;1.10;;
81912;SDS011;71377;50.698;7.164;2023-08-06T11:10:05;2.08;;;1.10;;
81912;SDS011;71377;50.698;7.164;2023-08-06T11:12:33;4.20;;;1.20;;
81912;SDS011;71377;50.698;7.164;2023-08-06T11:15:00;2.17;;;1.20;;
81912;SDS011;71377;50.698;7.164;2023-08-06T11:17:28;2.58;;;1.20;;
81912;SDS011;71377;50.698;7.164;2023-08-06T11:19:55;3.88;;;1.10;;
81912;SDS011;71377;50.698;7.164;2023-08-06T11:22:22;4.50;;;1.20;;
81912;SDS011;71377;50.698;7.164;2023-08-06T11:24:48;3.17;;;1.25;;
81912;SDS011;71377;50.698;7.164;2023-08-06T11:27:15;2.95;;;1.20;;
81912;SDS011;71377;50.698;7.164;2023-08-06T11:29:43;3.83;;;1.27;;
81912;SDS011;71377;50.698;7.164;2023-08-06T11:32:10;3.78;;;1.20;;
81912;SDS011;71377;50.698;7.164;2023-08-06T11:34:39;5.53;;;1.23;;
81912;SDS011;71377;50.698;7.164;2023-08-06T11:37:06;5.75;;;1.20;;
81912;SDS011;71377;50.698;7.164;2023-08-06T11:39:33;4.78;;;1.58;;
81912;SDS011;71377;50.698;7.164;2023-08-06T11:42:02;3.28;;;1.10;;
81912;SDS011;71377;50.698;7.164;2023-08-06T11:44:30;3.55;;;1.40;;
81912;SDS011;71377;50.698;7.164;2023-08-06T11:47:01;3.85;;;1.20;;
81912;SDS011;71377;50.698;7.164;2023-08-06T11:52:13;2.85;;;0.90;;
81912;SDS011;71377;50.698;7.164;2023-08-06T11:57:36;1.40;;;0.85;;
81912;SDS011;71377;50.698;7.164;2023-08-06T12:00:07;5.45;;;1.08;;
81912;SDS011;71377;50.698;7.164;2023-08-06T12:02:35;2.08;;;1.00;;
81912;SDS011;71377;50.698;7.164;2023-08-06T12:05:10;1.63;;;0.73;;
81912;SDS011;71377;50.698;7.164;2023-08-06T12:07:48;1.85;;;0.95;;
81912;SDS011;71377;50.698;7.164;2023-08-06T12:10:15;3.17;;;1.10;;
81912;SDS011;71377;50.698;7.164;2023-08-06T12:12:42;4.38;;;1.00;;
81912;SDS011;71377;50.698;7.164;2023-08-06T12:15:09;2.05;;;1.02;;
81912;SDS011;71377;50.698;7.164;2023-08-06T12:17:36;3.00;;;1.08;;
81912;SDS011;71377;50.698;7.164;2023-08-06T12:20:03;3.97;;;1.02;;
81912;SDS011;71377;50.698;7.164;2023-08-06T12:22:34;4.18;;;1.10;;
81912;SDS011;71377;50.698;7.164;2023-08-06T12:25:02;1.60;;;1.00;;
81912;SDS011;71377;50.698;7.164;2023-08-06T12:27:30;1.55;;;1.20;;
81912;SDS011;71377;50.698;7.164;2023-08-06T12:29:56;2.95;;;0.90;;
81912;SDS011;71377;50.698;7.164;2023-08-06T12:32:22;2.17;;;0.70;;
81912;SDS011;71377;50.698;7.164;2023-08-06T12:34:49;3.05;;;1.08;;
81912;SDS011;71377;50.698;7.164;2023-08-06T12:37:18;1.92;;;0.80;;
81912;SDS011;71377;50.698;7.164;2023-08-06T12:39:45;3.72;;;1.02;;
81912;SDS011;71377;50.698;7.164;2023-08-06T12:42:12;2.58;;;1.05;;
81912;SDS011;71377;50.698;7.164;2023-08-06T12:44:39;3.08;;;1.00;;
81912;SDS011;71377;50.698;7.164;2023-08-06T12:47:06;2.00;;;1.10;;
81912;SDS011;71377;50.698;7.164;2023-08-06T12:49:33;1.75;;;0.88;;
81912;SDS011;71377;50.698;7.164;2023-08-06T12:52:00;2.70;;;1.00;;
81912;SDS011;71377;50.698;7.164;2023-08-06T12:54:28;3.03;;;1.00;;
81912;SDS011;71377;50.698;7.164;2023-08-06T12:56:55;1.90;;;0.80;;
81912;SDS011;71377;50.698;7.164;2023-08-06T12:59:22;3.03;;;0.70;;
81912;SDS011;71377;50.698;7.164;2023-08-06T13:01:48;2.17;;;1.00;;
81912;SDS011;71377;50.698;7.164;2023-08-06T13:04:15;1.60;;;0.80;;
81912;SDS011;71377;50.698;7.164;2023-08-06T13:06:48;0.95;;;0.80;;
81912;SDS011;71377;50.698;7.164;2023-08-06T13:09:14;1.08;;;0.70;;
81912;SDS011;71377;50.698;7.164;2023-08-06T13:11:41;0.98;;;0.82;;
81912;SDS011;71377;50.698;7.164;2023-08-06T13:14:10;1.58;;;0.70;;
81912;SDS011;71377;50.698;7.164;2023-08-06T13:16:38;1.25;;;0.73;;
81912;SDS011;71377;50.698;7.164;2023-08-06T13:19:07;2.47;;;0.75;;
81912;SDS011;71377;50.698;7.164;2023-08-06T13:24:08;1.73;;;0.70;;
81912;SDS011;71377;50.698;7.164;2023-08-06T13:26:35;1.77;;;0.60;;
81912;SDS011;71377;50.698;7.164;2023-08-06T13:29:01;1.95;;;0.90;;
81912;SDS011;71377;50.698;7.164;2023-08-06T13:31:28;2.42;;;0.93;;
81912;SDS011;71377;50.698;7.164;2023-08-06T13:33:55;1.42;;;0.70;;
81912;SDS011;71377;50.698;7.164;2023-08-06T13:36:25;2.65;;;1.00;;
81912;SDS011;71377;50.698;7.164;2023-08-06T13:38:52;1.95;;;0.80;;
81912;SDS011;71377;50.698;7.164;2023-08-06T13:41:19;2.30;;;0.68;;
81912;SDS011;71377;50.698;7.164;2023-08-06T13:43:46;0.75;;;0.68;;
81912;SDS011;71377;50.698;7.164;2023-08-06T13:46:13;1.50;;;0.88;;
81912;SDS011;71377;50.698;7.164;2023-08-06T13:48:42;1.90;;;1.05;;
81912;SDS011;71377;50.698;7.164;2023-08-06T13:51:10;4.05;;;1.25;;
81912;SDS011;71377;50.698;7.164;2023-08-06T13:53:38;2.42;;;1.00;;
81912;SDS011;71377;50.698;7.164;2023-08-06T13:56:08;4.32;;;0.98;;
81912;SDS011;71377;50.698;7.164;2023-08-06T13:58:38;2.47;;;1.10;;
81912;SDS011;71377;50.698;7.164;2023-08-06T14:01:05;5.60;;;1.25;;
81912;SDS011;71377;50.698;7.164;2023-08-06T14:03:32;3.42;;;1.27;;
81912;SDS011;71377;50.698;7.164;2023-08-06T14:05:59;1.55;;;1.20;;
81912;SDS011;71377;50.698;7.164;2023-08-06T14:08:26;2.47;;;1.10;;
81912;SDS011;71377;50.698;7.164;2023-08-06T14:10:52;3.05;;;1.13;;
81912;SDS011;71377;50.698;7.164;2023-08-06T14:13:19;3.03;;;1.00;;
81912;SDS011;71377;50.698;7.164;2023-08-06T14:15:47;2.78;;;1.17;;
81912;SDS011;71377;50.698;7.164;2023-08-06T14:18:14;1.35;;;0.90;;
81912;SDS011;71377;50.698;7.164;2023-08-06T14:20:41;2.95;;;1.15;;
81912;SDS011;71377;50.698;7.164;2023-08-06T14:23:08;4.20;;;1.10;;
81912;SDS011;71377;50.698;7.164;2023-08-06T14:25:35;3.70;;;1.00;;
81912;SDS011;71377;50.698;7.164;2023-08-06T14:28:02;2.88;;;0.90;;
81912;SDS011;71377;50.698;7.164;2023-08-06T14:30:29;5.53;;;0.70;;
81912;SDS011;71377;50.698;7.164;2023-08-06T14:32:55;2.22;;;0.90;;
81912;SDS011;71377;50.698;7.164;2023-08-06T14:35:27;2.78;;;0.85;;
81912;SDS011;71377;50.698;7.164;2023-08-06T14:37:53;1.73;;;0.70;;
81912;SDS011;71377;50.698;7.164;2023-08-06T14:40:19;3.03;;;0.80;;
81912;SDS011;71377;50.698;7.164;2023-08-06T14:42:46;1.55;;;0.85;;
81912;SDS011;71377;50.698;7.164;2023-08-06T14:45:12;3.58;;;0.95;;
81912;SDS011;71377;50.698;7.164;2023-08-06T14:47:39;1.98;;;0.63;;
81912;SDS011;71377;50.698;7.164;2023-08-06T14:50:05;1.77;;;1.00;;
81912;SDS011;71377;50.698;7.164;2023-08-06T14:52:32;1.20;;;0.70;;
81912;SDS011;71377;50.698;7.164;2023-08-06T14:55:00;1.60;;;0.52;;
81912;SDS011;71377;50.698;7.164;2023-08-06T14:57:28;3.58;;;0.85;;
81912;SDS011;71377;50.698;7.164;2023-08-06T14:59:54;1.73;;;0.63;;
81912;SDS011;71377;50.698;7.164;2023-08-06T15:02:22;2.20;;;0.68;;
81912;SDS011;71377;50.698;7.164;2023-08-06T15:04:48;0.85;;;0.50;;
81912;SDS011;71377;50.698;7.164;2023-08-06T15:07:16;1.10;;;0.45;;
81912;SDS011;71377;50.698;7.164;2023-08-06T15:09:43;0.82;;;0.50;;
81912;SDS011;71377;50.698;7.164;2023-08-06T15:12:29;0.52;;;0.40;;
81912;SDS011;71377;50.698;7.164;2023-08-06T15:14:55;0.45;;;0.38;;
81912;SDS011;71377;50.698;7.164;2023-08-06T15:17:23;0.45;;;0.30;;